Time;durP1;ratioP1;P1;durP2;ratioP2;P2;SDS_P1;SDS_P2;PMS_P1;PMS_P2;Temp;Humidity;BMP_temperature;BMP_pressure;BME280_temperature;BME280_humidity;BME280_pressure;Samples;Min_cycle;Max_cycle;Signal;HPM_P1;HPM_P2
2023/05/23 00:01:36;;;;;;;28.60;19.00;;;;;;;21.70;58.27;97271.03;4975180;28;20446;-70
2023/05/23 00:04:05;;;;;;;28.20;20.20;;;;;;;21.69;58.53;97264.06;4974483;28;20196;-70
2023/05/23 00:06:31;;;;;;;31.57;21.27;;;;;;;21.68;58.77;97271.25;5013765;28;20471;-70
2023/05/23 00:08:56;;;;;;;30.77;22.27;;;;;;;21.66;59.13;97275.19;5020950;28;20915;-70
2023/05/23 00:11:25;;;;;;;34.43;22.07;;;;;;;21.59;59.28;97278.72;5014160;28;20274;-69
2023/05/23 00:13:56;;;;;;;36.00;22.50;;;;;;;21.56;59.64;97276.47;5041462;28;20250;-69
2023/05/23 00:16:21;;;;;;;33.80;24.40;;;;;;;21.57;59.99;97283.44;5018458;28;20502;-69
2023/05/23 00:18:49;;;;;;;35.50;24.30;;;;;;;21.61;59.78;97284.66;5012197;28;20944;-68
2023/05/23 00:21:14;;;;;;;37.37;25.03;;;;;;;21.59;59.90;97280.56;5012633;28;20203;-70
2023/05/23 00:23:41;;;;;;;43.20;25.87;;;;;;;21.56;60.40;97276.47;5018135;28;20431;-70
2023/05/23 00:26:07;;;;;;;45.23;27.70;;;;;;;21.59;60.55;97276.06;5014239;28;20247;-69
2023/05/23 00:28:32;;;;;;;43.87;30.20;;;;;;;21.59;60.63;97278.72;5005799;28;20462;-69
2023/05/23 00:30:58;;;;;;;47.23;29.83;;;;;;;21.62;60.81;97278.28;4973532;28;20443;-69
2023/05/23 00:33:23;;;;;;;57.53;33.10;;;;;;;21.65;60.81;97279.69;5010426;28;20200;-70
2023/05/23 00:35:49;;;;;;;49.60;31.23;;;;;;;21.63;61.22;97274.59;5006040;28;20200;-69
2023/05/23 00:38:15;;;;;;;54.50;34.20;;;;;;;21.68;61.26;97279.25;5008995;28;20199;-69
2023/05/23 00:40:40;;;;;;;49.40;32.43;;;;;;;21.70;61.40;97282.53;5007985;28;20191;-70
2023/05/23 00:43:08;;;;;;;55.03;33.33;;;;;;;21.73;61.14;97281.25;5018219;28;20501;-69
2023/05/23 00:45:34;;;;;;;53.47;32.17;;;;;;;21.70;60.91;97287.03;5016828;28;20222;-69
2023/05/23 00:48:00;;;;;;;52.27;33.93;;;;;;;21.67;61.16;97287.50;5008392;28;20514;-68
2023/05/23 00:50:29;;;;;;;53.37;33.90;;;;;;;21.67;61.25;97280.28;4990298;28;20203;-70
2023/05/23 00:52:56;;;;;;;57.30;34.60;;;;;;;21.71;61.19;97288.66;5005197;28;20256;-69
2023/05/23 00:55:23;;;;;;;56.40;34.47;;;;;;;21.72;61.15;97292.97;5013478;28;20454;-70
2023/05/23 00:57:49;;;;;;;58.23;36.33;;;;;;;21.68;61.36;97297.09;5008619;28;20510;-70
2023/05/23 01:00:14;;;;;;;59.13;34.13;;;;;;;21.67;61.51;97303.50;4996517;28;20996;-70
2023/05/23 01:02:44;;;;;;;57.00;35.90;;;;;;;21.68;61.27;97299.75;4973591;28;20291;-69
2023/05/23 01:05:13;;;;;;;56.97;35.20;;;;;;;21.70;61.63;97305.69;5010332;28;20270;-69
2023/05/23 01:07:39;;;;;;;63.23;36.73;;;;;;;21.63;61.72;97300.44;5012937;28;20462;-68
2023/05/23 01:10:05;;;;;;;54.40;34.27;;;;;;;21.59;61.65;97297.41;5013519;28;20431;-68
2023/05/23 01:12:38;;;;;;;55.27;32.40;;;;;;;21.56;61.86;97302.34;5016749;28;20864;-70
2023/05/23 01:15:08;;;;;;;53.07;31.67;;;;;;;21.59;61.75;97307.22;5011304;28;20554;-69
2023/05/23 01:17:35;;;;;;;51.90;32.53;;;;;;;21.57;61.80;97302.09;5008740;28;20867;-69
2023/05/23 01:20:09;;;;;;;51.30;33.97;;;;;;;21.57;61.92;97301.31;5018622;28;20434;-70
2023/05/23 01:22:52;;;;;;;52.70;34.93;;;;;;;21.59;61.81;97302.72;5010089;28;20437;-70
2023/05/23 01:25:26;;;;;;;54.73;32.90;;;;;;;21.61;61.83;97299.88;5007447;28;20951;-70
2023/05/23 01:27:54;;;;;;;57.37;33.70;;;;;;;21.54;62.01;97297.22;5018442;28;20422;-70
2023/05/23 01:30:22;;;;;;;60.60;36.93;;;;;;;21.53;61.79;97302.75;5023177;28;20447;-70
2023/05/23 01:32:50;;;;;;;56.27;34.40;;;;;;;21.53;61.99;97303.59;5013526;28;21152;-69
2023/05/23 01:35:19;;;;;;;58.00;36.33;;;;;;;21.55;62.01;97301.50;5024487;28;20514;-70
2023/05/23 01:37:45;;;;;;;62.47;36.87;;;;;;;21.51;61.65;97296.84;5017355;28;20996;-69
2023/05/23 01:40:10;;;;;;;59.93;36.43;;;;;;;21.51;62.11;97302.16;5010684;28;20428;-69
2023/05/23 01:42:36;;;;;;;59.87;36.80;;;;;;;21.47;62.02;97304.47;5008777;28;20196;-70
2023/05/23 01:45:02;;;;;;;65.10;37.07;;;;;;;21.47;61.92;97304.47;5016020;28;20280;-68
2023/05/23 01:47:28;;;;;;;62.00;37.70;;;;;;;21.43;61.96;97305.94;5015463;28;20207;-69
2023/05/23 01:49:55;;;;;;;66.07;38.60;;;;;;;21.39;62.06;97302.09;5008838;28;20192;-69
2023/05/23 01:52:20;;;;;;;58.37;37.50;;;;;;;21.33;62.33;97301.91;5009148;28;20275;-69
2023/05/23 01:54:47;;;;;;;64.97;38.87;;;;;;;21.31;62.13;97303.97;5018328;28;20538;-69
2023/05/23 01:57:13;;;;;;;64.53;39.00;;;;;;;21.33;62.25;97309.13;5012146;28;20208;-69
2023/05/23 01:59:39;;;;;;;74.57;39.80;;;;;;;21.30;62.19;97305.00;5008653;28;20516;-69
2023/05/23 02:02:04;;;;;;;65.43;39.00;;;;;;;21.31;62.43;97303.19;5008403;28;20538;-69
2023/05/23 02:04:30;;;;;;;63.87;39.13;;;;;;;21.28;62.70;97303.63;5010215;28;20203;-69
2023/05/23 02:06:56;;;;;;;68.97;41.10;;;;;;;21.21;62.24;97306.34;5008323;28;20227;-68
2023/05/23 02:09:21;;;;;;;68.00;40.47;;;;;;;21.16;62.80;97303.53;5010344;28;20287;-68
2023/05/23 02:11:46;;;;;;;73.40;43.83;;;;;;;21.13;62.55;97312.75;5009980;28;20207;-69
2023/05/23 02:14:12;;;;;;;66.87;40.70;;;;;;;21.09;62.49;97302.75;5015753;28;20200;-70
2023/05/23 02:16:37;;;;;;;63.37;41.30;;;;;;;21.05;62.82;97305.03;5022184;28;20254;-69
2023/05/23 02:19:03;;;;;;;76.83;43.80;;;;;;;21.02;62.75;97300.13;5007822;28;20200;-69
2023/05/23 02:21:29;;;;;;;77.33;43.17;;;;;;;21.05;63.36;97305.03;5009994;28;20192;-70
2023/05/23 02:23:54;;;;;;;77.37;44.07;;;;;;;20.99;63.04;97305.88;5012745;28;20534;-70
2023/05/23 02:26:20;;;;;;;68.30;42.93;;;;;;;20.99;63.19;97304.06;5009703;28;20244;-70
2023/05/23 02:28:45;;;;;;;77.87;45.80;;;;;;;20.99;62.87;97304.06;5015188;28;20200;-73
2023/05/23 02:31:11;;;;;;;63.40;42.80;;;;;;;20.88;63.69;97302.09;5008803;28;20215;-69
2023/05/23 02:33:36;;;;;;;72.60;43.67;;;;;;;20.86;63.64;97304.97;5013101;28;20588;-70
2023/05/23 02:36:02;;;;;;;67.30;43.67;;;;;;;20.86;63.46;97310.28;5009456;28;20637;-69
2023/05/23 02:38:29;;;;;;;76.77;45.37;;;;;;;20.85;63.83;97307.84;5009458;28;20561;-69
2023/05/23 02:40:56;;;;;;;65.37;41.67;;;;;;;20.90;63.54;97310.69;5009154;28;20258;-69
2023/05/23 02:43:22;;;;;;;70.10;43.40;;;;;;;20.88;63.39;97312.75;5017650;28;20875;-70
2023/05/23 02:45:47;;;;;;;73.93;43.40;;;;;;;20.84;63.55;97309.72;5015371;28;20566;-68
2023/05/23 02:48:13;;;;;;;69.00;43.10;;;;;;;20.84;63.52;97323.03;5044348;28;20195;-69
2023/05/23 02:50:38;;;;;;;69.50;41.47;;;;;;;20.83;63.29;97316.06;5010553;28;20188;-69
2023/05/23 02:53:04;;;;;;;70.23;42.40;;;;;;;20.84;63.73;97322.19;5008834;28;20278;-69
2023/05/23 02:55:30;;;;;;;69.23;43.60;;;;;;;20.87;63.76;97330.56;5009230;28;20596;-69
2023/05/23 02:57:57;;;;;;;73.63;43.70;;;;;;;20.86;63.72;97336.13;5011818;28;20250;-68
2023/05/23 03:00:23;;;;;;;68.27;40.30;;;;;;;20.84;63.87;97336.34;5009435;28;20443;-69
2023/05/23 03:02:49;;;;;;;72.53;42.03;;;;;;;20.85;64.04;97326.50;5013369;28;20526;-69
2023/05/23 03:05:14;;;;;;;75.47;47.20;;;;;;;20.86;63.38;97333.44;5008635;28;20514;-68
2023/05/23 03:07:39;;;;;;;71.93;43.20;;;;;;;20.83;64.14;97332.03;5016025;28;20255;-69
2023/05/23 03:10:06;;;;;;;64.30;42.73;;;;;;;20.85;64.29;97329.16;5016866;28;20199;-69
2023/05/23 03:12:31;;;;;;;70.60;43.83;;;;;;;20.89;63.76;97335.69;5014364;28;20192;-69
2023/05/23 03:14:57;;;;;;;75.33;44.27;;;;;;;20.83;64.32;97334.72;5008091;28;20438;-68
2023/05/23 03:17:24;;;;;;;76.20;43.90;;;;;;;20.84;64.09;97332.84;5010826;28;20677;-70
2023/05/23 03:19:49;;;;;;;63.60;41.87;;;;;;;20.90;64.25;97331.16;5005171;28;20569;-70
2023/05/23 03:22:15;;;;;;;70.33;44.40;;;;;;;20.89;64.09;97337.53;5011263;28;20426;-69
2023/05/23 03:24:40;;;;;;;71.37;46.60;;;;;;;20.89;64.00;97341.03;5015345;28;20718;-70
2023/05/23 03:27:06;;;;;;;70.67;43.37;;;;;;;20.92;64.17;97337.91;5016713;28;20223;-71
2023/05/23 03:29:31;;;;;;;70.67;44.87;;;;;;;20.95;63.81;97334.81;5007847;28;20914;-69
2023/05/23 03:31:57;;;;;;;70.97;44.23;;;;;;;20.97;63.76;97340.75;5016340;28;20192;-69
2023/05/23 03:34:22;;;;;;;65.17;43.50;;;;;;;20.99;63.65;97340.53;5009722;28;20279;-71
2023/05/23 03:36:48;;;;;;;73.50;45.07;;;;;;;21.01;63.71;97338.47;5019639;28;20238;-70
2023/05/23 03:39:13;;;;;;;70.57;44.40;;;;;;;21.01;63.54;97341.97;5011187;28;20249;-70
2023/05/23 03:41:39;;;;;;;66.00;44.30;;;;;;;21.02;63.20;97334.78;5014969;28;20286;-70
2023/05/23 03:44:04;;;;;;;57.60;41.63;;;;;;;20.96;63.58;97333.78;5008983;28;20184;-68
2023/05/23 03:46:30;;;;;;;58.17;41.80;;;;;;;20.98;63.42;97334.41;5014425;28;20270;-69
2023/05/23 03:48:55;;;;;;;66.00;42.90;;;;;;;21.00;63.59;97336.81;4998626;28;20187;-70
2023/05/23 03:51:21;;;;;;;56.37;40.40;;;;;;;20.99;63.19;97341.34;5005366;28;20184;-69
2023/05/23 03:53:46;;;;;;;57.33;39.73;;;;;;;21.03;62.99;97336.41;5012933;28;20189;-70
2023/05/23 03:56:12;;;;;;;61.60;42.60;;;;;;;21.04;63.08;97335.38;5009176;28;20196;-70
2023/05/23 03:58:39;;;;;;;59.07;39.50;;;;;;;21.04;63.26;97339.91;5007466;28;20692;-69
2023/05/23 04:01:05;;;;;;;59.87;42.57;;;;;;;21.05;62.85;97338.84;4988878;28;20224;-70
2023/05/23 04:03:31;;;;;;;61.53;42.27;;;;;;;21.05;63.22;97330.84;5013950;28;20453;-69
2023/05/23 04:05:58;;;;;;;60.17;40.77;;;;;;;21.05;63.18;97334.34;5013013;28;20232;-68
2023/05/23 04:08:24;;;;;;;54.53;40.53;;;;;;;21.07;63.03;97339.44;4998925;28;20466;-70
2023/05/23 04:10:49;;;;;;;59.63;40.70;;;;;;;21.06;63.08;97351.13;5007446;28;20975;-69
2023/05/23 04:13:14;;;;;;;60.80;42.10;;;;;;;21.07;63.00;97347.44;5012357;28;20267;-70
2023/05/23 04:15:41;;;;;;;55.77;40.10;;;;;;;21.09;63.08;97356.03;5014773;28;20211;-70
2023/05/23 04:18:08;;;;;;;62.03;39.20;;;;;;;21.09;63.11;97354.19;5008734;28;20180;-70
2023/05/23 04:20:33;;;;;;;57.23;40.40;;;;;;;21.11;62.72;97351.31;5021592;28;20769;-70
2023/05/23 04:22:59;;;;;;;55.93;37.07;;;;;;;21.10;62.96;97349.69;5008830;28;20434;-69
2023/05/23 04:25:25;;;;;;;64.63;40.80;;;;;;;21.09;63.21;97350.69;5011419;28;20184;-70
2023/05/23 04:27:51;;;;;;;55.00;39.80;;;;;;;21.09;62.85;97350.69;5008755;28;20571;-70
2023/05/23 04:30:17;;;;;;;52.77;38.20;;;;;;;21.11;62.73;97352.13;5006948;28;20192;-70
2023/05/23 04:32:43;;;;;;;58.50;39.30;;;;;;;21.12;62.70;97352.94;5007765;28;20833;-69
2023/05/23 04:35:09;;;;;;;56.73;39.80;;;;;;;21.14;62.45;97346.34;5005460;28;20554;-69
2023/05/23 04:37:36;;;;;;;49.97;37.97;;;;;;;21.17;62.67;97353.13;5014110;28;20427;-69
2023/05/23 04:40:03;;;;;;;55.40;38.07;;;;;;;21.17;62.65;97358.44;5009092;28;20435;-69
2023/05/23 04:42:28;;;;;;;57.17;38.57;;;;;;;21.17;62.41;97369.13;5010131;28;20431;-69
2023/05/23 04:44:56;;;;;;;51.27;39.33;;;;;;;21.20;62.26;97363.31;5013195;28;20493;-70
2023/05/23 04:47:23;;;;;;;50.93;36.27;;;;;;;21.18;62.62;97368.88;5014280;28;20207;-71
2023/05/23 04:49:49;;;;;;;52.37;39.07;;;;;;;21.18;62.09;97365.38;5024580;28;20438;-71
2023/05/23 04:52:17;;;;;;;46.43;37.03;;;;;;;21.14;62.38;97370.34;5010484;28;21015;-69
2023/05/23 04:54:45;;;;;;;47.07;37.90;;;;;;;21.12;62.30;97371.59;5015546;28;20562;-70
2023/05/23 04:57:11;;;;;;;53.27;39.57;;;;;;;21.13;62.36;97375.91;5014453;28;20446;-70
2023/05/23 04:59:37;;;;;;;55.00;39.53;;;;;;;21.13;62.37;97378.56;5016568;28;20514;-69
2023/05/23 05:02:04;;;;;;;47.67;36.73;;;;;;;21.15;62.63;97387.16;5009948;28;20936;-69
2023/05/23 05:04:30;;;;;;;51.83;38.83;;;;;;;21.16;62.61;97381.59;5040145;28;20426;-70
2023/05/23 05:06:56;;;;;;;50.97;38.07;;;;;;;21.18;62.31;97381.38;5011032;28;20454;-69
2023/05/23 05:09:22;;;;;;;50.83;38.50;;;;;;;21.18;62.15;97384.88;5010169;28;20201;-71
2023/05/23 05:11:47;;;;;;;48.47;37.70;;;;;;;21.22;62.00;97379.91;5008300;28;20431;-69
2023/05/23 05:14:13;;;;;;;47.67;39.20;;;;;;;21.24;62.32;97385.84;5009521;28;20435;-69
2023/05/23 05:16:38;;;;;;;47.27;38.03;;;;;;;21.25;62.01;97376.81;5016100;28;20266;-69
2023/05/23 05:19:04;;;;;;;48.77;37.17;;;;;;;21.28;62.29;97391.56;5012478;28;20195;-68
2023/05/23 05:21:30;;;;;;;48.77;38.43;;;;;;;21.28;61.87;97387.06;5009104;28;20192;-69
2023/05/23 05:23:56;;;;;;;53.90;39.00;;;;;;;21.26;62.32;97394.44;5016812;28;20187;-69
2023/05/23 05:26:22;;;;;;;46.17;37.90;;;;;;;21.27;62.26;97400.59;5009860;28;20271;-69
2023/05/23 05:28:48;;;;;;;48.03;38.83;;;;;;;21.25;61.73;97402.66;5006346;28;20424;-69
2023/05/23 05:31:14;;;;;;;49.50;39.03;;;;;;;21.22;61.83;97395.09;5017207;28;20187;-68
2023/05/23 05:33:40;;;;;;;48.77;38.30;;;;;;;21.23;61.81;97402.06;5008345;28;20218;-69
2023/05/23 05:36:06;;;;;;;55.13;39.53;;;;;;;21.22;61.79;97403.91;5004602;28;20507;-68
2023/05/23 05:38:32;;;;;;;53.37;40.83;;;;;;;21.22;61.87;97409.22;5018623;28;20490;-70
2023/05/23 05:40:57;;;;;;;49.60;40.53;;;;;;;21.21;61.70;97404.94;5009746;28;20852;-69
2023/05/23 05:43:24;;;;;;;48.93;39.43;;;;;;;21.22;61.98;97401.25;5012665;28;20196;-71
2023/05/23 05:45:50;;;;;;;48.37;36.33;;;;;;;21.25;61.66;97400.81;5006029;28;20216;-70
2023/05/23 05:48:15;;;;;;;46.87;35.73;;;;;;;21.26;61.39;97407.78;5019296;28;20424;-72
2023/05/23 05:50:44;;;;;;;53.70;38.57;;;;;;;21.28;61.35;97403.06;5015358;28;20280;-72
2023/05/23 05:53:09;;;;;;;49.30;40.30;;;;;;;21.30;61.45;97403.63;5010395;28;20688;-72
2023/05/23 05:55:35;;;;;;;55.33;39.47;;;;;;;21.33;61.07;97405.06;5012037;28;20526;-71
2023/05/23 05:58:00;;;;;;;48.70;37.40;;;;;;;21.36;61.14;97406.47;5019840;28;20208;-70
2023/05/23 06:00:26;;;;;;;49.60;38.57;;;;;;;21.37;61.29;97400.91;5008398;28;20219;-71
2023/05/23 06:02:53;;;;;;;40.23;32.60;;;;;;;21.43;61.26;97401.91;5041759;28;20227;-70
2023/05/23 06:05:19;;;;;;;50.03;35.03;;;;;;;21.48;61.05;97413.53;5019424;28;20203;-70
2023/05/23 06:07:47;;;;;;;44.93;34.67;;;;;;;21.52;60.93;97407.78;5014422;28;20817;-71
2023/05/23 06:10:12;;;;;;;45.00;35.00;;;;;;;21.59;60.77;97405.88;5008446;28;20199;-71
2023/05/23 06:12:38;;;;;;;40.00;29.63;;;;;;;21.64;60.45;97411.41;5009962;28;20423;-70
2023/05/23 06:15:05;;;;;;;42.20;31.60;;;;;;;21.68;60.22;97412.59;5043900;28;20737;-70
2023/05/23 06:17:30;;;;;;;42.33;36.13;;;;;;;21.75;59.86;97418.69;5014554;28;20231;-72
2023/05/23 06:19:56;;;;;;;44.40;34.57;;;;;;;21.81;59.73;97416.19;5015139;28;20439;-71
2023/05/23 06:22:21;;;;;;;46.07;36.97;;;;;;;21.85;59.76;97409.38;5019033;28;20266;-71
2023/05/23 06:24:47;;;;;;;48.67;38.20;;;;;;;21.86;59.40;97406.47;5004033;28;20199;-72
2023/05/23 06:27:12;;;;;;;49.00;37.70;;;;;;;21.88;59.24;97411.59;5016498;28;20208;-70
2023/05/23 06:29:38;;;;;;;47.30;37.57;;;;;;;21.85;59.10;97412.84;5010800;28;20184;-72
2023/05/23 06:32:04;;;;;;;43.80;37.47;;;;;;;21.83;59.16;97414.91;5010208;28;20188;-72
2023/05/23 06:34:29;;;;;;;43.40;36.77;;;;;;;21.83;59.10;97422.13;5019940;28;20200;-72
2023/05/23 06:36:55;;;;;;;46.23;39.17;;;;;;;21.76;59.08;97424.84;5017460;28;20465;-71
2023/05/23 06:39:20;;;;;;;41.10;35.90;;;;;;;21.74;59.26;97426.91;5017207;28;20215;-72
2023/05/23 06:41:46;;;;;;;45.00;36.40;;;;;;;21.73;59.18;97430.59;5009410;28;20176;-72
2023/05/23 06:44:12;;;;;;;43.47;35.93;;;;;;;21.75;58.90;97433.88;5008601;28;20546;-70
2023/05/23 06:46:38;;;;;;;45.07;32.57;;;;;;;21.76;58.85;97435.50;5009611;28;20459;-73
2023/05/23 06:49:03;;;;;;;40.67;34.03;;;;;;;21.76;58.75;97436.31;5013248;28;20942;-71
2023/05/23 06:51:29;;;;;;;40.67;33.63;;;;;;;21.69;58.53;97440.06;5008772;28;20272;-72
2023/05/23 06:53:55;;;;;;;37.10;31.70;;;;;;;21.68;58.89;97444.59;5016040;28;20263;-73
2023/05/23 06:56:22;;;;;;;40.83;32.90;;;;;;;21.66;58.76;97453.88;5009110;28;20212;-72
2023/05/23 06:58:47;;;;;;;40.37;33.80;;;;;;;21.56;58.56;97452.44;5009802;28;21260;-72
2023/05/23 07:01:13;;;;;;;41.40;33.40;;;;;;;21.53;58.95;97463.56;5008185;28;20435;-72
2023/05/23 07:03:42;;;;;;;40.90;34.27;;;;;;;21.43;58.77;97457.88;5012393;28;20576;-71
2023/05/23 07:06:07;;;;;;;41.43;33.43;;;;;;;21.33;58.95;97469.03;5008536;28;20270;-71
2023/05/23 07:08:33;;;;;;;42.63;34.77;;;;;;;21.23;59.30;97466.84;5008331;28;20428;-73
2023/05/23 07:10:58;;;;;;;37.70;31.57;;;;;;;21.15;59.22;97472.44;5011207;28;20216;-72
2023/05/23 07:13:24;;;;;;;40.13;32.90;;;;;;;21.08;59.25;97472.47;5006773;28;20196;-73
2023/05/23 07:15:49;;;;;;;47.70;32.90;;;;;;;21.09;59.96;97478.59;5008604;28;20785;-73
2023/05/23 07:18:14;;;;;;;42.07;33.57;;;;;;;21.05;59.37;97483.53;5011653;28;20212;-72
2023/05/23 07:20:40;;;;;;;42.77;33.67;;;;;;;21.03;59.74;97480.25;5013360;28;20180;-71
2023/05/23 07:23:05;;;;;;;39.87;33.77;;;;;;;20.99;59.52;97479.03;5011361;28;20279;-73
2023/05/23 07:25:31;;;;;;;42.33;31.47;;;;;;;20.96;59.51;97480.28;5008422;28;20184;-71
2023/05/23 07:27:56;;;;;;;35.80;31.47;;;;;;;20.97;59.54;97486.47;4991125;28;20562;-72
2023/05/23 07:30:22;;;;;;;36.77;31.47;;;;;;;20.92;59.28;97489.72;4974322;28;20192;-72
2023/05/23 07:32:48;;;;;;;35.93;30.97;;;;;;;20.87;58.96;97489.56;4992239;28;20291;-71
2023/05/23 07:35:14;;;;;;;37.60;30.67;;;;;;;20.86;59.38;97491.41;5022953;28;20192;-70
2023/05/23 07:37:40;;;;;;;39.67;31.67;;;;;;;20.79;59.65;97495.94;5011439;28;20503;-72
2023/05/23 07:40:09;;;;;;;48.77;32.70;;;;;;;20.80;59.66;97502.06;5040297;28;20506;-71
2023/05/23 07:42:34;;;;;;;41.80;34.63;;;;;;;20.79;59.56;97503.94;5011838;28;20728;-71
2023/05/23 07:45:00;;;;;;;39.60;33.80;;;;;;;20.78;59.70;97498.84;5008778;28;20436;-72
2023/05/23 07:47:26;;;;;;;39.40;34.47;;;;;;;20.72;59.82;97495.94;5006283;28;20208;-71
2023/05/23 07:49:52;;;;;;;44.00;34.00;;;;;;;20.75;59.40;97502.72;5010587;28;20195;-71
2023/05/23 07:52:18;;;;;;;42.13;36.13;;;;;;;20.71;59.61;97499.63;5012710;28;20442;-71
2023/05/23 07:54:44;;;;;;;40.47;34.07;;;;;;;20.68;59.59;97501.91;5015542;28;20432;-72
2023/05/23 07:57:09;;;;;;;45.93;34.77;;;;;;;20.69;59.04;97500.88;5008627;28;20471;-74
2023/05/23 07:59:35;;;;;;;43.43;32.93;;;;;;;20.66;58.79;97504.78;5015414;28;20192;-72
2023/05/23 08:02:01;;;;;;;44.80;35.43;;;;;;;20.65;58.88;97505.81;5008053;28;20193;-73
2023/05/23 08:04:27;;;;;;;42.30;34.20;;;;;;;20.67;58.72;97501.06;5015909;28;20188;-72
2023/05/23 08:06:54;;;;;;;41.17;33.13;;;;;;;20.68;58.80;97513.34;5006759;28;20463;-71
2023/05/23 08:09:19;;;;;;;38.40;32.60;;;;;;;20.70;58.67;97508.63;5015637;28;20430;-70
2023/05/23 08:11:45;;;;;;;37.73;32.57;;;;;;;20.74;58.46;97513.56;5016018;28;20427;-71
2023/05/23 08:14:10;;;;;;;36.77;31.43;;;;;;;20.77;58.38;97513.16;5006960;28;20212;-71
2023/05/23 08:16:36;;;;;;;39.97;32.77;;;;;;;20.78;58.46;97507.63;5014187;28;20237;-72
2023/05/23 08:19:02;;;;;;;35.80;29.60;;;;;;;20.80;58.21;97518.88;5016644;28;20184;-72
2023/05/23 08:21:27;;;;;;;33.30;28.97;;;;;;;20.81;58.03;97517.03;5010053;28;20659;-71
2023/05/23 08:23:53;;;;;;;35.93;27.17;;;;;;;20.86;57.41;97523.34;5015782;28;20298;-73
2023/05/23 08:26:18;;;;;;;31.73;28.33;;;;;;;20.78;56.93;97512.94;5013613;28;20711;-71
2023/05/23 08:28:44;;;;;;;35.20;27.40;;;;;;;20.76;56.59;97523.00;5024398;28;20243;-70
2023/05/23 08:31:10;;;;;;;32.90;27.83;;;;;;;20.76;56.71;97528.31;5012476;28;20196;-71
2023/05/23 08:33:35;;;;;;;32.50;27.53;;;;;;;20.74;56.37;97525.00;5010213;28;20195;-72
2023/05/23 08:36:01;;;;;;;33.63;27.13;;;;;;;20.70;56.74;97537.13;5011900;28;20549;-71
2023/05/23 08:38:26;;;;;;;32.93;26.40;;;;;;;20.62;56.76;97532.84;5012104;28;20229;-73
2023/05/23 08:40:53;;;;;;;29.60;26.40;;;;;;;20.55;57.12;97537.34;5011855;28;20192;-73
2023/05/23 08:43:19;;;;;;;31.77;25.00;;;;;;;20.56;57.39;97547.81;5009866;28;20195;-73
2023/05/23 08:45:44;;;;;;;28.40;25.30;;;;;;;20.55;56.80;97540.84;5011066;28;20501;-71
2023/05/23 08:48:15;;;;;;;29.97;25.07;;;;;;;20.56;56.62;97545.16;5014198;28;20197;-71
2023/05/23 08:50:42;;;;;;;25.80;22.70;;;;;;;20.59;56.61;97543.09;5010753;28;20185;-73
2023/05/23 08:53:08;;;;;;;29.73;24.03;;;;;;;20.59;56.31;97543.91;5012824;28;20439;-73
2023/05/23 08:55:36;;;;;;;26.60;21.90;;;;;;;20.63;56.07;97545.13;5009789;28;20430;-73
2023/05/23 08:58:02;;;;;;;27.40;22.00;;;;;;;20.69;55.74;97549.59;5021806;28;20430;-72
2023/05/23 09:00:28;;;;;;;26.90;20.80;;;;;;;20.71;55.04;97550.22;5012490;28;20803;-72
2023/05/23 09:02:54;;;;;;;26.50;22.20;;;;;;;20.64;55.30;97545.94;5010069;28;20189;-73
2023/05/23 09:05:20;;;;;;;24.37;21.87;;;;;;;20.63;55.57;97553.13;5010652;28;21023;-71
2023/05/23 09:07:47;;;;;;;31.20;22.83;;;;;;;20.65;55.61;97556.41;5020845;28;20237;-71
2023/05/23 09:10:15;;;;;;;31.80;22.30;;;;;;;20.74;55.75;97556.16;5011600;28;21119;-71
2023/05/23 09:12:42;;;;;;;23.20;20.40;;;;;;;20.79;55.41;97556.41;5011138;28;20427;-73
2023/05/23 09:15:08;;;;;;;27.80;22.33;;;;;;;20.80;55.42;97561.50;5012687;28;20427;-72
2023/05/23 09:17:35;;;;;;;23.53;20.93;;;;;;;20.87;54.87;97567.63;5019994;28;20537;-73
2023/05/23 09:20:01;;;;;;;25.53;21.47;;;;;;;20.86;55.13;97570.50;5010053;28;20438;-72
2023/05/23 09:22:27;;;;;;;24.03;20.40;;;;;;;20.90;54.86;97568.22;5010715;28;20510;-72
2023/05/23 09:24:54;;;;;;;24.73;21.83;;;;;;;20.80;54.65;97569.50;5021064;28;20428;-72
2023/05/23 09:27:19;;;;;;;25.23;20.53;;;;;;;20.92;54.46;97564.31;5015192;28;21137;-71
2023/05/23 09:29:46;;;;;;;26.37;19.67;;;;;;;20.96;53.94;97575.41;5009493;28;20440;-71
2023/05/23 09:32:19;;;;;;;21.40;18.83;;;;;;;20.91;53.85;97576.03;5010991;28;20199;-72
2023/05/23 09:35:02;;;;;;;22.03;16.90;;;;;;;20.89;53.90;97572.75;5043637;28;20440;-71
2023/05/23 09:37:34;;;;;;;19.10;17.07;;;;;;;20.92;53.59;97574.16;5008513;28;20547;-73
2023/05/23 09:40:05;;;;;;;20.23;17.60;;;;;;;20.98;53.09;97576.81;4993234;28;20435;-72
2023/05/23 09:42:32;;;;;;;18.60;16.20;;;;;;;21.04;52.70;97569.81;4945193;28;20438;-73
2023/05/23 09:44:58;;;;;;;18.30;16.50;;;;;;;21.09;52.38;97577.19;4996526;28;20424;-71
2023/05/23 09:47:24;;;;;;;15.77;13.87;;;;;;;21.21;52.50;97578.16;5009663;28;20549;-71
2023/05/23 09:49:50;;;;;;;19.20;14.03;;;;;;;21.35;52.18;97578.94;5022582;28;20864;-72
2023/05/23 09:52:15;;;;;;;14.80;13.20;;;;;;;21.45;51.43;97571.28;5012325;28;20251;-70
2023/05/23 09:54:42;;;;;;;14.90;13.40;;;;;;;21.52;50.55;97573.09;5010053;28;20427;-71
2023/05/23 09:57:11;;;;;;;16.37;14.63;;;;;;;21.54;50.07;97574.53;5015322;28;20219;-70
2023/05/23 09:59:41;;;;;;;16.50;14.27;;;;;;;21.66;50.51;97573.88;5008196;28;20427;-71
2023/05/23 10:02:10;;;;;;;14.20;12.70;;;;;;;21.74;50.16;97570.94;5010667;28;20447;-70
2023/05/23 10:04:37;;;;;;;17.10;13.67;;;;;;;21.81;49.42;97574.38;5013253;28;20446;-73
2023/05/23 10:07:09;;;;;;;14.67;13.00;;;;;;;21.80;50.28;97575.38;5011726;28;21057;-71
2023/05/23 10:09:37;;;;;;;15.30;13.20;;;;;;;21.76;49.61;97571.53;5008247;28;20442;-72
2023/05/23 10:12:38;;;;;;;20.53;12.27;;;;;;;21.83;49.71;97580.31;5009979;28;20922;-72
2023/05/23 10:15:05;;;;;;;13.93;12.53;;;;;;;21.88;49.59;97575.16;5049562;28;20465;-72
2023/05/23 10:17:52;;;;;;;12.10;10.90;;;;;;;21.98;49.00;97573.84;5018649;28;20928;-72
2023/05/23 10:20:21;;;;;;;14.60;10.70;;;;;;;22.11;48.69;97571.06;5010250;28;20924;-71
2023/05/23 10:22:47;;;;;;;12.17;10.97;;;;;;;22.23;48.40;97563.19;5011242;28;20430;-70
2023/05/23 10:25:13;;;;;;;26.30;12.37;;;;;;;22.21;47.48;97555.38;5014851;28;20534;-72
2023/05/23 10:27:39;;;;;;;12.43;10.40;;;;;;;22.37;47.58;97567.34;5007731;28;20463;-72
2023/05/23 10:30:07;;;;;;;11.37;10.27;;;;;;;22.54;46.85;97566.81;5009780;28;20424;-71
2023/05/23 10:32:33;;;;;;;11.10;9.90;;;;;;;22.72;46.76;97565.22;5009241;28;20873;-71
2023/05/23 10:35:37;;;;;;;11.90;10.70;;;;;;;22.86;46.56;97564.03;5017329;28;20513;-72
2023/05/23 10:38:25;;;;;;;10.97;9.73;;;;;;;22.90;46.47;97567.88;5011750;28;20545;-71
2023/05/23 10:41:04;;;;;;;10.53;9.53;;;;;;;22.85;46.11;97570.41;5008032;28;20436;-72
2023/05/23 10:43:39;;;;;;;12.03;10.60;;;;;;;22.88;45.82;97566.47;5009167;28;21002;-72
2023/05/23 10:46:07;;;;;;;13.20;11.50;;;;;;;22.85;46.07;97565.06;5011036;28;20507;-72
2023/05/23 10:48:34;;;;;;;12.63;10.20;;;;;;;22.86;46.35;97567.50;5011036;28;20435;-72
2023/05/23 10:51:10;;;;;;;11.80;9.50;;;;;;;22.88;46.68;97563.81;5017046;28;20485;-71
2023/05/23 10:53:41;;;;;;;12.03;10.57;;;;;;;22.89;46.44;97573.44;5009008;28;21012;-72
2023/05/23 10:56:07;;;;;;;16.50;9.87;;;;;;;22.95;46.13;97569.88;5016336;28;20473;-72
2023/05/23 10:58:34;;;;;;;10.60;9.60;;;;;;;23.00;46.10;97572.72;5009308;28;20519;-71
2023/05/23 11:01:07;;;;;;;10.40;9.43;;;;;;;23.07;46.16;97570.75;5009966;28;20805;-70
2023/05/23 11:03:48;;;;;;;13.60;10.47;;;;;;;23.12;46.18;97573.59;5048866;28;20797;-73
2023/05/23 11:06:38;;;;;;;12.10;10.40;;;;;;;23.16;45.81;97580.13;5012361;28;21007;-71
2023/05/23 11:09:18;;;;;;;11.50;10.40;;;;;;;23.04;44.86;97579.25;5009049;28;20502;-72
2023/05/23 11:11:53;;;;;;;16.80;11.27;;;;;;;22.91;44.99;97579.41;5016799;28;20561;-73
2023/05/23 11:14:19;;;;;;;12.13;10.03;;;;;;;22.84;45.14;97584.81;5010552;28;20813;-69
2023/05/23 11:16:47;;;;;;;11.63;10.43;;;;;;;22.79;45.42;97582.81;5001535;28;20470;-71